Time;durP1;ratioP1;P1;durP2;ratioP2;P2;SDS_P1;SDS_P2;PMS_P1;PMS_P2;Temp;Humidity;BMP_temperature;BMP_pressure;BME280_temperature;BME280_humidity;BME280_pressure;Samples;Min_cycle;Max_cycle;Signal;HPM_P1;HPM_P2
2022/07/09 00:00:02;;;;;;;8.52;5.63;;;17.10;99.90;;;;;;5033935;28;20418;-79
2022/07/09 00:02:28;;;;;;;12.00;6.07;;;17.10;99.90;;;;;;5032469;28;20504;-79
2022/07/09 00:04:53;;;;;;;14.30;6.90;;;17.10;99.90;;;;;;5018792;28;20139;-79
2022/07/09 00:07:19;;;;;;;9.77;5.80;;;17.10;99.90;;;;;;5032537;28;20096;-79
2022/07/09 00:09:44;;;;;;;12.23;6.00;;;17.10;99.90;;;;;;5032436;28;20081;-79
2022/07/09 00:12:10;;;;;;;12.40;6.35;;;17.10;99.90;;;;;;5032131;28;20053;-79
2022/07/09 00:14:36;;;;;;;14.00;6.47;;;17.00;99.90;;;;;;5017123;28;20132;-79
2022/07/09 00:17:02;;;;;;;9.70;6.85;;;17.00;99.90;;;;;;5034502;28;20029;-79
2022/07/09 00:19:27;;;;;;;11.68;6.55;;;17.00;99.90;;;;;;5016360;28;20041;-79
2022/07/09 00:21:53;;;;;;;9.50;6.53;;;17.00;99.90;;;;;;5034810;28;20044;-79
2022/07/09 00:24:19;;;;;;;19.00;7.30;;;17.00;99.90;;;;;;5019092;28;20044;-79
2022/07/09 00:26:44;;;;;;;11.40;6.65;;;17.00;99.90;;;;;;5031301;28;20417;-79
2022/07/09 00:29:10;;;;;;;12.40;7.35;;;17.00;99.90;;;;;;5032199;28;20044;-79
2022/07/09 00:31:36;;;;;;;15.85;7.82;;;17.00;99.90;;;;;;5016344;28;20128;-79
2022/07/09 00:34:01;;;;;;;12.48;7.75;;;17.00;99.90;;;;;;5033865;28;20440;-79
2022/07/09 00:36:27;;;;;;;14.38;7.53;;;17.00;99.90;;;;;;5034661;28;20059;-76
2022/07/09 00:38:53;;;;;;;13.07;7.20;;;17.00;99.90;;;;;;5017750;28;20036;-77
2022/07/09 00:41:19;;;;;;;14.52;7.75;;;17.10;99.90;;;;;;5035112;28;20118;-78
2022/07/09 00:43:49;;;;;;;14.35;6.90;;;17.10;99.90;;;;;;5032288;28;20048;-78
2022/07/09 00:46:15;;;;;;;13.48;6.32;;;17.10;99.90;;;;;;5031973;28;20518;-78
2022/07/09 00:48:41;;;;;;;17.13;7.32;;;17.10;99.90;;;;;;5034201;28;20091;-78
2022/07/09 00:51:08;;;;;;;13.82;7.35;;;17.10;99.90;;;;;;5018212;28;20420;-78
2022/07/09 00:53:35;;;;;;;11.07;6.50;;;17.10;99.90;;;;;;5016971;28;20065;-79
2022/07/09 00:56:02;;;;;;;17.98;8.43;;;17.10;99.90;;;;;;5015331;28;20041;-79
2022/07/09 00:58:28;;;;;;;12.85;6.95;;;17.10;99.90;;;;;;5042254;28;20032;-78
2022/07/09 01:00:55;;;;;;;12.93;6.72;;;17.00;99.90;;;;;;5032297;28;20044;-78
2022/07/09 01:03:21;;;;;;;10.02;6.65;;;17.00;99.90;;;;;;5034566;28;20033;-79
2022/07/09 01:05:46;;;;;;;14.93;6.70;;;17.00;99.90;;;;;;5033965;28;20041;-78
2022/07/09 01:08:12;;;;;;;12.95;6.85;;;17.10;99.90;;;;;;5017055;28;20048;-79
2022/07/09 01:10:39;;;;;;;14.75;5.95;;;17.10;99.90;;;;;;5031086;28;20453;-79
2022/07/09 01:13:05;;;;;;;14.45;6.22;;;17.10;99.90;;;;;;5001289;28;20045;-77
2022/07/09 01:15:32;;;;;;;13.68;6.60;;;17.20;99.90;;;;;;5034036;28;20086;-78
2022/07/09 01:17:58;;;;;;;;;;;17.10;99.90;;;;;;5016073;28;20400;-79
2022/07/09 01:20:31;;;;;;;11.95;6.35;;;17.20;99.90;;;;;;5016357;28;19917;-79
2022/07/09 01:22:57;;;;;;;15.50;6.40;;;17.10;99.90;;;;;;5030811;28;20044;-78
2022/07/09 01:25:43;;;;;;;11.65;6.32;;;17.10;99.90;;;;;;5016290;28;20033;-78
2022/07/09 01:28:10;;;;;;;12.25;6.00;;;17.10;99.90;;;;;;5030841;28;20096;-77
2022/07/09 01:30:37;;;;;;;12.30;6.25;;;17.10;99.90;;;;;;5014271;28;20124;-78
2022/07/09 01:33:03;;;;;;;11.88;5.95;;;17.10;99.90;;;;;;5031163;28;20045;-79
2022/07/09 01:35:29;;;;;;;14.93;5.97;;;17.10;99.90;;;;;;5033706;28;20159;-78
2022/07/09 01:37:55;;;;;;;11.52;6.22;;;17.00;99.90;;;;;;5016587;28;20124;-79
2022/07/09 01:40:21;;;;;;;12.88;6.43;;;17.00;99.90;;;;;;5013615;28;20037;-78
2022/07/09 01:42:48;;;;;;;13.45;6.32;;;17.00;99.90;;;;;;5029489;28;20045;-78
2022/07/09 01:45:14;;;;;;;12.00;5.80;;;17.00;99.90;;;;;;5030284;28;20041;-78
2022/07/09 01:47:41;;;;;;;20.15;6.40;;;17.00;99.90;;;;;;5032648;28;20052;-78
2022/07/09 01:50:07;;;;;;;11.10;5.78;;;17.00;99.90;;;;;;5031219;28;20037;-77
2022/07/09 01:52:33;;;;;;;13.68;6.13;;;17.00;99.90;;;;;;5015019;28;20138;-78
2022/07/09 01:54:59;;;;;;;12.82;5.95;;;17.00;99.90;;;;;;5031061;28;20088;-78
2022/07/09 01:57:25;;;;;;;12.93;6.13;;;17.00;99.90;;;;;;5015817;28;20474;-78
2022/07/09 01:59:50;;;;;;;13.32;5.90;;;17.00;99.90;;;;;;5016538;28;20029;-79
2022/07/09 02:02:16;;;;;;;13.93;6.22;;;17.00;99.90;;;;;;5033209;28;20036;-79
2022/07/09 02:04:42;;;;;;;12.18;5.93;;;17.00;99.90;;;;;;5031700;28;20045;-79
2022/07/09 02:07:08;;;;;;;17.30;6.55;;;16.90;99.90;;;;;;5032860;28;20072;-78
2022/07/09 02:09:33;;;;;;;16.15;6.60;;;16.90;99.90;;;;;;5032095;28;20055;-79
2022/07/09 02:11:59;;;;;;;15.23;6.32;;;16.80;99.90;;;;;;5030637;28;20048;-79
2022/07/09 02:14:25;;;;;;;13.45;6.07;;;16.80;99.90;;;;;;5016819;28;20041;-78
2022/07/09 02:16:50;;;;;;;15.35;6.13;;;16.80;99.90;;;;;;5029144;28;20148;-78
2022/07/09 02:19:16;;;;;;;17.80;7.22;;;16.70;99.90;;;;;;5032542;28;20032;-79
2022/07/09 02:21:42;;;;;;;15.23;6.55;;;16.70;99.90;;;;;;5029976;28;20040;-79
2022/07/09 02:24:07;;;;;;;12.93;6.90;;;16.70;99.90;;;;;;5031171;28;20045;-79
2022/07/09 02:26:33;;;;;;;13.43;6.40;;;16.70;99.90;;;;;;5014465;28;20044;-79
2022/07/09 02:28:59;;;;;;;15.02;6.05;;;16.70;99.90;;;;;;5013702;28;20508;-78
2022/07/09 02:31:26;;;;;;;12.18;6.03;;;16.70;99.90;;;;;;5016032;28;20044;-79
2022/07/09 02:33:52;;;;;;;;;;;16.70;99.90;;;;;;5029517;28;20049;-79
2022/07/09 02:36:18;;;;;;;13.85;6.40;;;16.70;99.90;;;;;;5032749;28;19921;-78
2022/07/09 02:38:43;;;;;;;15.60;6.72;;;16.70;99.90;;;;;;5029233;28;20486;-79
2022/07/09 02:41:09;;;;;;;12.05;6.57;;;16.60;99.90;;;;;;5013912;28;20037;-79
2022/07/09 02:43:35;;;;;;;15.80;6.47;;;16.60;99.90;;;;;;5029998;28;20044;-79
2022/07/09 02:46:01;;;;;;;14.48;6.13;;;16.70;99.90;;;;;;5032328;28;20071;-79
2022/07/09 02:48:26;;;;;;;12.45;6.07;;;16.60;99.90;;;;;;5030386;28;20037;-79
2022/07/09 02:50:53;;;;;;;10.48;5.75;;;16.60;99.90;;;;;;5029223;28;20048;-77
2022/07/09 02:53:19;;;;;;;;;;;16.60;99.90;;;;;;5031321;28;20041;-78
2022/07/09 02:55:45;;;;;;;11.50;5.60;;;16.60;99.90;;;;;;5030786;28;19921;-78
2022/07/09 02:58:11;;;;;;;15.23;5.40;;;16.60;99.90;;;;;;5015092;28;20029;-78
2022/07/09 03:00:39;;;;;;;10.73;5.25;;;16.60;99.90;;;;;;5013008;28;20394;-78
2022/07/09 03:03:05;;;;;;;14.05;5.20;;;16.50;99.90;;;;;;5030618;28;20381;-78
2022/07/09 03:05:31;;;;;;;15.60;5.55;;;16.60;99.90;;;;;;5032829;28;20041;-79
2022/07/09 03:07:57;;;;;;;10.50;5.43;;;16.50;99.90;;;;;;5015861;28;20045;-78
2022/07/09 03:10:23;;;;;;;14.05;4.70;;;16.40;99.90;;;;;;5029378;28;20040;-79
2022/07/09 03:12:48;;;;;;;17.33;6.50;;;16.50;99.90;;;;;;5029507;28;20054;-78
2022/07/09 03:15:16;;;;;;;11.13;4.60;;;16.40;99.90;;;;;;4996382;28;20042;-78
2022/07/09 03:17:42;;;;;;;13.95;5.40;;;16.40;99.90;;;;;;5030976;28;20103;-78
2022/07/09 03:20:09;;;;;;;10.82;4.78;;;16.40;99.90;;;;;;5031780;28;20933;-78
2022/07/09 03:22:35;;;;;;;10.40;4.70;;;16.40;99.90;;;;;;5012979;28;20038;-79
2022/07/09 03:25:01;;;;;;;11.57;4.88;;;16.30;99.90;;;;;;5014728;28;20052;-79
2022/07/09 03:27:27;;;;;;;8.98;4.65;;;16.30;99.90;;;;;;5030408;28;20057;-79
2022/07/09 03:29:53;;;;;;;8.70;4.78;;;16.20;99.90;;;;;;5031581;28;20044;-77
2022/07/09 03:32:18;;;;;;;8.85;4.88;;;16.20;99.90;;;;;;5029791;28;20036;-79
2022/07/09 03:34:44;;;;;;;13.30;5.05;;;16.20;99.90;;;;;;5031188;28;20132;-78
2022/07/09 03:37:10;;;;;;;14.25;5.53;;;16.20;99.90;;;;;;4998996;28;20052;-80
2022/07/09 03:39:36;;;;;;;12.65;4.53;;;16.20;99.90;;;;;;5031809;28;20033;-79
2022/07/09 03:42:02;;;;;;;14.52;5.28;;;16.20;99.90;;;;;;5028412;28;20056;-78
2022/07/09 03:44:27;;;;;;;13.07;5.05;;;16.20;99.90;;;;;;5012812;28;20045;-78
2022/07/09 03:46:53;;;;;;;12.77;5.40;;;16.20;99.90;;;;;;5028604;28;20155;-79
2022/07/09 03:49:19;;;;;;;11.55;4.78;;;16.10;99.90;;;;;;4995867;28;20103;-78
2022/07/09 03:51:44;;;;;;;9.50;5.57;;;16.10;99.90;;;;;;5032113;28;20041;-78
2022/07/09 03:54:10;;;;;;;13.63;5.07;;;16.10;99.90;;;;;;5030889;28;20123;-78
2022/07/09 03:56:36;;;;;;;9.32;4.38;;;16.10;99.90;;;;;;5031961;28;20037;-79
2022/07/09 03:59:02;;;;;;;10.85;5.38;;;16.10;99.90;;;;;;5031481;28;20033;-79
2022/07/09 04:01:28;;;;;;;12.98;5.10;;;16.10;99.90;;;;;;5030098;28;20095;-78
2022/07/09 04:03:53;;;;;;;10.98;5.05;;;16.10;99.90;;;;;;5028186;28;20056;-78
2022/07/09 04:06:20;;;;;;;9.32;4.85;;;16.20;99.90;;;;;;5013152;28;20123;-78
2022/07/09 04:08:45;;;;;;;;;;;16.20;99.90;;;;;;5012274;28;20037;-78
2022/07/09 04:11:11;;;;;;;9.50;5.22;;;16.20;99.90;;;;;;5031101;28;19966;-78
2022/07/09 04:13:37;;;;;;;10.05;5.15;;;16.20;99.90;;;;;;5030276;28;20137;-78
2022/07/09 04:16:03;;;;;;;13.23;5.10;;;16.20;99.90;;;;;;5027772;28;20446;-78
2022/07/09 04:18:29;;;;;;;10.77;5.30;;;16.20;99.90;;;;;;5030400;28;20045;-79
2022/07/09 04:20:55;;;;;;;9.98;5.18;;;16.20;99.90;;;;;;5016846;28;20408;-79
2022/07/09 04:23:20;;;;;;;12.57;5.40;;;16.20;99.90;;;;;;5015341;28;20529;-77
2022/07/09 04:25:48;;;;;;;10.52;4.88;;;16.30;99.90;;;;;;5033109;28;20037;-78
2022/07/09 04:28:14;;;;;;;9.35;5.20;;;16.20;99.90;;;;;;5018765;28;20489;-78
2022/07/09 04:30:40;;;;;;;12.27;5.07;;;16.30;99.90;;;;;;5031332;28;20081;-79
2022/07/09 04:33:06;;;;;;;10.20;5.05;;;16.30;99.90;;;;;;5018554;28;20052;-79
2022/07/09 04:35:31;;;;;;;11.90;5.43;;;16.30;99.90;;;;;;5033309;28;20033;-79
2022/07/09 04:37:57;;;;;;;9.48;5.22;;;16.40;99.90;;;;;;5031757;28;20112;-79
2022/07/09 04:40:23;;;;;;;12.68;4.78;;;16.40;99.90;;;;;;5032177;28;20045;-79
2022/07/09 04:42:48;;;;;;;12.32;5.15;;;16.40;99.90;;;;;;5034302;28;20040;-79
2022/07/09 04:45:15;;;;;;;17.02;6.30;;;16.40;99.90;;;;;;4998312;28;20516;-79
2022/07/09 04:47:41;;;;;;;9.20;5.05;;;16.50;99.90;;;;;;5032190;28;20045;-78
2022/07/09 04:50:08;;;;;;;11.70;5.10;;;16.50;99.90;;;;;;5030013;28;20091;-79
2022/07/09 04:52:33;;;;;;;11.18;4.80;;;16.60;99.90;;;;;;5040116;28;20048;-79
2022/07/09 04:54:59;;;;;;;12.88;4.93;;;16.60;99.90;;;;;;5019591;28;20033;-79
2022/07/09 04:57:25;;;;;;;9.20;4.63;;;16.60;99.90;;;;;;5015448;28;20045;-79
2022/07/09 04:59:51;;;;;;;13.43;5.20;;;16.60;99.90;;;;;;5032336;28;20033;-78
2022/07/09 05:02:16;;;;;;;12.35;4.88;;;16.70;99.90;;;;;;5034202;28;20041;-78
2022/07/09 05:04:42;;;;;;;8.50;5.03;;;16.70;99.90;;;;;;5031595;28;20037;-79
2022/07/09 05:07:07;;;;;;;7.15;4.53;;;16.70;99.90;;;;;;5017576;28;20049;-79
2022/07/09 05:09:33;;;;;;;7.75;4.53;;;16.80;99.90;;;;;;5014519;28;20057;-79
2022/07/09 05:11:59;;;;;;;12.38;4.57;;;16.80;99.90;;;;;;5032054;28;20124;-79
2022/07/09 05:14:25;;;;;;;13.13;4.85;;;16.80;99.90;;;;;;5014601;28;20039;-79
2022/07/09 05:16:51;;;;;;;9.07;4.30;;;16.90;99.90;;;;;;5016840;28;20037;-79
2022/07/09 05:19:16;;;;;;;11.95;4.53;;;16.90;99.90;;;;;;5029032;28;20085;-79
2022/07/09 05:21:42;;;;;;;12.23;4.82;;;17.00;99.90;;;;;;5016922;28;20047;-79
2022/07/09 05:24:09;;;;;;;7.43;3.95;;;17.00;99.90;;;;;;5015991;28;20045;-79
2022/07/09 05:26:35;;;;;;;9.68;4.13;;;17.00;99.90;;;;;;5032363;28;20048;-78
2022/07/09 05:29:02;;;;;;;;;;;17.10;99.90;;;;;;5015888;28;20072;-77
2022/07/09 05:31:27;;;;;;;9.57;4.20;;;17.10;99.90;;;;;;5035764;28;19917;-78
2022/07/09 05:33:53;;;;;;;9.80;4.40;;;17.10;99.90;;;;;;5016653;28;20485;-78
2022/07/09 05:36:19;;;;;;;8.48;4.07;;;17.20;99.90;;;;;;5030908;28;20424;-79
2022/07/09 05:38:45;;;;;;;9.65;4.20;;;17.20;99.90;;;;;;5031680;28;20039;-78
2022/07/09 05:41:11;;;;;;;10.30;3.80;;;17.20;99.90;;;;;;5033465;28;20037;-78
2022/07/09 05:43:37;;;;;;;8.40;3.90;;;17.20;99.90;;;;;;5032089;28;20051;-79
2022/07/09 05:46:02;;;;;;;8.63;3.97;;;17.30;99.90;;;;;;5033468;28;20124;-79
2022/07/09 05:48:28;;;;;;;9.35;4.20;;;17.30;99.90;;;;;;5033165;28;20045;-79
2022/07/09 05:50:54;;;;;;;7.65;3.72;;;17.30;99.90;;;;;;5016335;28;20063;-79
2022/07/09 05:53:20;;;;;;;;;;;17.40;99.90;;;;;;5013895;28;20428;-78
2022/07/09 05:55:46;;;;;;;8.70;3.88;;;17.40;99.90;;;;;;5033562;28;19975;-78
2022/07/09 05:58:12;;;;;;;7.28;3.72;;;17.40;99.90;;;;;;5029817;28;20045;-78
2022/07/09 06:00:38;;;;;;;7.20;3.65;;;17.40;99.90;;;;;;5033687;28;20041;-78
2022/07/09 06:03:04;;;;;;;8.57;3.95;;;17.50;99.90;;;;;;5047031;28;20558;-78
2022/07/09 06:05:29;;;;;;;8.15;3.75;;;17.40;99.90;;;;;;5033758;28;20500;-77
2022/07/09 06:07:55;;;;;;;7.10;3.30;;;17.50;99.90;;;;;;5033283;28;20041;-79
2022/07/09 06:10:22;;;;;;;8.05;3.55;;;17.50;99.90;;;;;;5029679;28;20047;-79
2022/07/09 06:12:48;;;;;;;9.90;3.58;;;17.50;99.90;;;;;;5032855;28;20057;-79
2022/07/09 06:15:14;;;;;;;8.85;3.08;;;17.60;99.90;;;;;;5031947;28;20508;-79
2022/07/09 06:17:39;;;;;;;10.15;2.97;;;17.60;99.90;;;;;;5014012;28;20040;-79
2022/07/09 06:20:06;;;;;;;6.65;3.25;;;17.60;99.90;;;;;;5032538;28;20496;-79
2022/07/09 06:22:32;;;;;;;10.57;3.28;;;17.60;99.90;;;;;;5016950;28;20390;-79
2022/07/09 06:24:58;;;;;;;8.30;3.50;;;17.70;99.90;;;;;;5030784;28;20049;-79
2022/07/09 06:27:24;;;;;;;5.20;2.63;;;17.70;99.90;;;;;;5016364;28;20515;-79
2022/07/09 06:29:50;;;;;;;8.90;3.10;;;17.70;99.90;;;;;;5029568;28;20600;-79
2022/07/09 06:32:16;;;;;;;10.13;3.08;;;17.70;99.90;;;;;;5013280;28;20045;-81
2022/07/09 06:34:41;;;;;;;5.95;2.80;;;17.80;99.90;;;;;;5013491;28;20065;-82
2022/07/09 06:37:07;;;;;;;11.13;2.72;;;17.90;99.90;;;;;;5031515;28;20060;-82
2022/07/09 06:39:46;;;;;;;7.35;3.20;;;17.90;99.90;;;;;;5013557;28;20053;-82
2022/07/09 06:42:17;;;;;;;6.35;2.63;;;18.00;99.90;;;;;;5032909;28;20405;-82
2022/07/09 06:44:43;;;;;;;5.72;2.63;;;18.10;99.90;;;;;;5030690;28;20051;-82
2022/07/09 06:47:10;;;;;;;6.90;2.25;;;18.10;99.90;;;;;;5030416;28;20045;-82
2022/07/09 06:49:36;;;;;;;5.85;2.50;;;18.20;99.90;;;;;;5038257;28;20051;-84
2022/07/09 06:52:02;;;;;;;8.73;2.83;;;18.20;99.90;;;;;;5031381;28;20036;-82
2022/07/09 06:54:28;;;;;;;;;;;18.20;99.90;;;;;;5030041;28;20470;-83
2022/07/09 06:56:53;;;;;;;9.23;2.25;;;18.20;99.90;;;;;;5029674;28;19952;-82
2022/07/09 06:59:21;;;;;;;7.10;2.33;;;18.20;99.90;;;;;;5013253;28;20041;-83
2022/07/09 07:01:47;;;;;;;7.20;2.50;;;18.20;99.90;;;;;;5031160;28;20047;-82
2022/07/09 07:04:14;;;;;;;7.32;2.20;;;18.20;99.90;;;;;;5032725;28;20041;-82
2022/07/09 07:06:44;;;;;;;8.50;2.28;;;18.20;99.90;;;;;;5030304;28;20072;-82
2022/07/09 07:09:10;;;;;;;7.63;2.40;;;18.30;99.90;;;;;;5016401;28;20033;-81
2022/07/09 07:11:35;;;;;;;5.68;2.15;;;18.30;99.90;;;;;;5029582;28;20474;-82
2022/07/09 07:14:01;;;;;;;7.90;2.20;;;18.40;99.90;;;;;;5032436;28;20070;-82
2022/07/09 07:16:27;;;;;;;5.82;2.25;;;18.40;99.90;;;;;;5012735;28;20486;-80
2022/07/09 07:18:53;;;;;;;4.53;1.80;;;18.40;99.90;;;;;;5029870;28;20160;-78
2022/07/09 07:21:19;;;;;;;7.65;2.15;;;18.50;99.90;;;;;;5015368;28;20040;-83
2022/07/09 07:23:45;;;;;;;6.07;2.05;;;18.50;99.90;;;;;;5029395;28;20393;-81
2022/07/09 07:26:10;;;;;;;8.23;2.40;;;18.70;99.90;;;;;;5022268;28;20034;-82
2022/07/09 07:28:36;;;;;;;14.75;2.17;;;18.80;99.90;;;;;;5032440;28;20048;-84
2022/07/09 07:31:02;;;;;;;4.80;1.73;;;18.90;99.90;;;;;;5015780;28;20041;-84
2022/07/09 07:33:27;;;;;;;4.72;1.85;;;19.00;99.90;;;;;;5015298;28;20037;-84
2022/07/09 07:35:53;;;;;;;5.47;2.17;;;19.00;99.90;;;;;;5012993;28;20045;-84
2022/07/09 07:38:19;;;;;;;5.88;1.60;;;19.10;99.90;;;;;;5031033;28;20030;-84
2022/07/09 07:40:45;;;;;;;4.22;1.67;;;19.30;99.90;;;;;;5029987;28;20408;-84
2022/07/09 07:43:11;;;;;;;6.15;1.42;;;19.40;99.90;;;;;;5038494;28;20515;-86
2022/07/09 07:45:37;;;;;;;;;;;19.50;99.90;;;;;;5031595;28;20380;-85
2022/07/09 07:48:03;;;;;;;7.60;1.70;;;19.50;99.90;;;;;;5033103;28;19924;-83
2022/07/09 07:50:28;;;;;;;7.13;1.60;;;19.40;99.90;;;;;;5012386;28;20033;-83
2022/07/09 07:52:54;;;;;;;5.82;2.28;;;19.50;99.90;;;;;;5016259;28;20037;-81
2022/07/09 07:55:20;;;;;;;7.10;1.48;;;19.50;99.90;;;;;;5016956;28;20386;-82
2022/07/09 07:57:46;;;;;;;4.65;1.30;;;19.50;99.90;;;;;;5034191;28;20120;-82
2022/07/09 08:00:12;;;;;;;5.53;1.80;;;19.50;99.90;;;;;;5020135;28;20041;-84
2022/07/09 08:02:37;;;;;;;4.38;1.42;;;19.50;99.90;;;;;;5016001;28;20156;-83
2022/07/09 08:05:04;;;;;;;4.15;1.33;;;19.70;99.90;;;;;;5001257;28;20057;-83
2022/07/09 08:07:30;;;;;;;6.20;1.52;;;19.80;99.90;;;;;;5000327;28;20037;-82
2022/07/09 08:09:56;;;;;;;4.80;1.25;;;19.80;99.90;;;;;;5017347;28;20045;-81
2022/07/09 08:12:22;;;;;;;4.35;1.30;;;19.90;99.90;;;;;;5035729;28;20111;-82
2022/07/09 08:14:47;;;;;;;3.45;1.40;;;20.10;99.90;;;;;;5032585;28;20515;-82
2022/07/09 08:17:13;;;;;;;5.25;1.35;;;20.40;99.90;;;;;;5035652;28;20034;-81
2022/07/09 08:19:39;;;;;;;4.88;1.33;;;20.70;99.90;;;;;;5035397;28;20040;-80
2022/07/09 08:22:05;;;;;;;4.38;1.10;;;20.90;99.90;;;;;;5034228;28;20033;-78
2022/07/09 08:24:30;;;;;;;2.78;1.08;;;21.00;99.90;;;;;;5036056;28;20052;-76
2022/07/09 08:26:58;;;;;;;5.00;1.20;;;20.80;99.90;;;;;;5022452;28;20040;-78
2022/07/09 08:29:24;;;;;;;3.38;1.10;;;20.70;99.90;;;;;;5039790;28;20053;-79
2022/07/09 08:31:50;;;;;;;;;;;20.50;99.90;;;;;;5034313;28;20142;-80
2022/07/09 08:34:16;;;;;;;8.90;1.90;;;20.50;99.90;;;;;;5031788;28;19968;-80
2022/07/09 08:36:42;;;;;;;3.53;1.30;;;20.80;99.90;;;;;;5031459;28;20037;-80
2022/07/09 08:39:08;;;;;;;6.47;1.60;;;21.20;99.90;;;;;;5031311;28;20508;-80
2022/07/09 08:41:33;;;;;;;6.20;1.08;;;21.10;99.90;;;;;;5032405;28;20045;-81
2022/07/09 08:44:04;;;;;;;6.03;1.60;;;21.00;99.90;;;;;;5035326;28;20124;-85
2022/07/09 08:46:31;;;;;;;5.78;0.95;;;21.20;99.90;;;;;;5014798;28;20486;-77
2022/07/09 08:48:58;;;;;;;4.90;1.20;;;21.60;99.90;;;;;;5033463;28;20103;-77
2022/07/09 08:51:25;;;;;;;2.83;0.98;;;22.10;99.90;;;;;;5032348;28;20076;-79
2022/07/09 08:53:54;;;;;;;2.67;0.80;;;22.40;99.90;;;;;;5034814;28;20045;-80
2022/07/09 08:56:20;;;;;;;3.17;0.90;;;22.70;99.90;;;;;;5031731;28;20053;-79
2022/07/09 08:58:46;;;;;;;;;;;23.10;99.90;;;;;;5031862;28;20037;-85
2022/07/09 09:01:16;;;;;;;7.53;1.35;;;23.50;99.90;;;;;;5033162;28;19924;-88
2022/07/09 09:03:42;;;;;;;3.95;1.20;;;23.50;99.90;;;;;;5030606;28;20069;-86
2022/07/09 09:06:10;;;;;;;4.72;1.08;;;23.20;99.90;;;;;;5032962;28;20037;-84
2022/07/09 09:08:40;;;;;;;5.05;1.05;;;23.30;99.90;;;;;;5031593;28;20033;-87
2022/07/09 09:11:11;;;;;;;4.90;1.10;;;23.20;99.90;;;;;;5035562;28;20090;-89
2022/07/09 09:13:41;;;;;;;5.10;1.10;;;22.70;99.90;;;;;;5003304;28;20061;-89
2022/07/09 09:16:08;;;;;;;3.92;1.00;;;22.70;99.90;;;;;;5018772;28;20051;-88
2022/07/09 09:18:40;;;;;;;4.10;1.02;;;23.10;99.90;;;;;;5032296;28;20045;-86
2022/07/09 09:21:08;;;;;;;2.42;0.77;;;23.40;99.90;;;;;;5016960;28;20033;-89
2022/07/09 09:23:44;;;;;;;3.05;0.70;;;23.30;99.90;;;;;;5018332;28;20044;-89
2022/07/09 09:26:15;;;;;;;6.10;1.10;;;23.60;99.90;;;;;;5014860;28;20101;-89
2022/07/09 09:29:01;;;;;;;6.10;1.00;;;23.60;99.90;;;;;;5021344;28;20037;-87
2022/07/09 09:31:28;;;;;;;3.90;1.02;;;23.40;99.90;;;;;;5042181;28;20397;-88
2022/07/09 09:34:15;;;;;;;5.30;1.45;;;23.30;99.90;;;;;;5017602;28;20044;-88
2022/07/09 09:36:43;;;;;;;4.55;1.38;;;23.00;99.90;;;;;;5014144;28;20128;-87
2022/07/09 09:39:20;;;;;;;3.35;1.23;;;22.70;99.90;;;;;;4999306;28;20033;-88
2022/07/09 09:41:48;;;;;;;6.00;0.95;;;22.60;99.90;;;;;;5017472;28;20171;-88
2022/07/09 09:44:26;;;;;;;6.03;1.80;;;22.60;99.90;;;;;;5034121;28;20044;-87
2022/07/09 09:46:53;;;;;;;4.65;0.80;;;22.80;99.90;;;;;;5031782;28;20582;-88
2022/07/09 09:49:19;;;;;;;4.00;1.02;;;22.90;99.90;;;;;;5014818;28;20176;-87
2022/07/09 09:52:04;;;;;;;5.32;1.20;;;23.10;99.90;;;;;;5017430;28;20036;-87
2022/07/09 09:54:38;;;;;;;5.32;1.15;;;23.10;99.90;;;;;;5018260;28;20396;-86
2022/07/09 09:57:16;;;;;;;6.43;1.00;;;23.00;99.90;;;;;;5032677;28;20052;-87
2022/07/09 09:59:44;;;;;;;6.10;1.30;;;22.80;99.90;;;;;;5034565;28;20034;-84
2022/07/09 10:02:10;;;;;;;3.83;0.80;;;22.90;99.90;;;;;;5015679;28;20038;-83
2022/07/09 10:04:37;;;;;;;;;;;22.90;99.90;;;;;;5040524;28;20116;-84
2022/07/09 10:07:04;;;;;;;4.38;1.08;;;22.90;99.90;;;;;;5033191;28;20284;-86
2022/07/09 10:09:30;;;;;;;6.88;0.90;;;23.20;99.90;;;;;;5039529;28;20067;-85
2022/07/09 10:11:56;;;;;;;;;;;23.50;99.90;;;;;;5029872;28;20057;-83
2022/07/09 10:14:24;;;;;;;5.90;1.35;;;23.30;99.90;;;;;;5030454;28;20007;-83
2022/07/09 10:16:51;;;;;;;3.28;0.90;;;23.50;99.90;;;;;;5042042;28;20734;-85
2022/07/09 10:19:28;;;;;;;5.38;1.20;;;23.60;99.90;;;;;;5003924;28;20045;-87
2022/07/09 10:21:55;;;;;;;3.97;1.20;;;23.90;99.90;;;;;;5031897;28;20033;-87
2022/07/09 10:24:26;;;;;;;4.97;1.20;;;24.10;99.90;;;;;;5024093;28;20035;-83
2022/07/09 10:26:52;;;;;;;4.05;1.10;;;23.60;99.90;;;;;;5031316;28;20486;-85
2022/07/09 10:29:19;;;;;;;;;;;22.60;99.90;;;;;;5013646;28;20052;-76
2022/07/09 10:31:47;;;;;;;5.38;1.02;;;21.80;99.90;;;;;;5032916;28;20305;-75
2022/07/09 10:34:44;;;;;;;9.27;1.40;;;21.50;99.90;;;;;;5015180;28;20033;-74
2022/07/09 10:37:10;;;;;;;5.63;1.40;;;20.80;99.90;;;;;;5027262;28;20045;-75
2022/07/09 10:39:36;;;;;;;8.30;1.67;;;20.30;99.90;;;;;;5027985;28;20532;-76
2022/07/09 10:42:19;;;;;;;6.72;1.50;;;19.80;99.90;;;;;;5010458;28;20094;-75
2022/07/09 10:44:46;;;;;;;7.00;1.30;;;19.90;99.90;;;;;;5028705;28;20045;-75
2022/07/09 10:47:12;;;;;;;5.72;1.30;;;19.90;99.90;;;;;;5028612;28;20048;-76
2022/07/09 10:49:39;;;;;;;5.57;1.35;;;20.10;99.90;;;;;;5031242;28;20055;-77
2022/07/09 10:52:05;;;;;;;8.27;1.70;;;20.10;99.90;;;;;;5029260;28;20528;-76
2022/07/09 10:54:32;;;;;;;7.75;1.58;;;20.50;99.90;;;;;;5032556;28;20072;-76
2022/07/09 10:56:58;;;;;;;6.55;1.55;;;20.50;99.90;;;;;;5032561;28;20048;-75
2022/07/09 10:59:25;;;;;;;5.95;1.27;;;20.50;99.90;;;;;;5031400;28;20049;-76
2022/07/09 11:01:51;;;;;;;9.23;1.15;;;20.80;99.90;;;;;;5030814;28;20110;-76
2022/07/09 11:04:28;;;;;;;4.97;1.10;;;20.90;99.90;;;;;;5027673;28;20052;-76
2022/07/09 11:06:54;;;;;;;3.92;1.10;;;20.90;99.90;;;;;;5029569;28;20052;-76
2022/07/09 11:09:20;;;;;;;5.75;1.10;;;21.10;99.90;;;;;;5030081;28;20091;-76
2022/07/09 11:11:49;;;;;;;6.85;0.75;;;21.30;99.90;;;;;;5030456;28;20045;-76
2022/07/09 11:14:15;;;;;;;5.40;1.02;;;21.40;99.90;;;;;;5031921;28;20056;-77
2022/07/09 11:16:41;;;;;;;6.40;0.70;;;21.90;99.90;;;;;;5029737;28;20482;-76
2022/07/09 11:19:18;;;;;;;3.35;0.80;;;22.10;99.90;;;;;;5030722;28;20088;-76
2022/07/09 11:21:44;;;;;;;3.75;0.77;;;22.40;99.90;;;;;;5026714;28;20031;-76
2022/07/09 11:24:15;;;;;;;4.93;0.75;;;22.70;99.90;;;;;;5029390;28;20548;-77
2022/07/09 11:26:41;;;;;;;5.43;0.80;;;22.60;99.90;;;;;;5030759;28;20045;-76
2022/07/09 11:29:08;;;;;;;;;;;22.50;99.90;;;;;;5034950;28;20044;-76
2022/07/09 11:31:33;;;;;;;6.40;1.10;;;22.50;99.90;;;;;;5020315;28;19979;-77
2022/07/09 11:34:11;;;;;;;;;;;22.60;99.90;;;;;;5017781;28;20085;-76
2022/07/09 11:36:44;;;;;;;3.83;0.55;;;22.60;99.90;;;;;;5033927;28;20012;-76
2022/07/09 11:39:26;;;;;;;4.07;0.52;;;22.90;99.90;;;;;;5036356;28;20083;-76
2022/07/09 11:41:53;;;;;;;4.03;0.70;;;22.90;99.90;;;;;;5033321;28;20090;-76
2022/07/09 11:44:21;;;;;;;5.63;0.70;;;23.10;99.90;;;;;;5036086;28;20052;-76
2022/07/09 11:47:03;;;;;;;6.32;0.77;;;23.20;99.90;;;;;;5032469;28;20038;-76
2022/07/09 11:49:40;;;;;;;6.85;0.77;;;23.40;99.90;;;;;;5031778;28;20157;-75
2022/07/09 11:52:21;;;;;;;3.47;0.68;;;23.30;99.90;;;;;;5016218;28;20488;-76
2022/07/09 11:55:01;;;;;;;4.47;0.70;;;23.60;99.90;;;;;;5031350;28;20080;-77
2022/07/09 11:57:29;;;;;;;2.83;0.60;;;24.00;99.90;;;;;;5035015;28;20071;-76
2022/07/09 11:59:55;;;;;;;3.63;0.52;;;24.10;99.90;;;;;;5033013;28;20037;-76
2022/07/09 12:02:26;;;;;;;3.70;0.50;;;23.90;99.80;;;;;;5035710;28;20064;-76
2022/07/09 12:04:51;;;;;;;2.00;0.60;;;23.80;99.90;;;;;;5034592;28;20045;-75
2022/07/09 12:07:17;;;;;;;;;;;23.80;99.90;;;;;;5036197;28;20417;-77
2022/07/09 12:09:43;;;;;;;4.75;0.70;;;23.50;99.90;;;;;;5051950;28;19917;-76
2022/07/09 12:12:08;;;;;;;;;;;23.60;99.90;;;;;;5034802;28;20063;-76
2022/07/09 12:14:34;;;;;;;4.68;0.60;;;23.50;99.90;;;;;;5032442;28;19921;-76
2022/07/09 12:16:59;;;;;;;;;;;23.70;99.90;;;;;;5034685;28;20033;-76
2022/07/09 12:19:25;;;;;;;5.70;0.50;;;23.90;99.90;;;;;;5031994;28;19917;-77
2022/07/09 12:21:51;;;;;;;;;;;23.80;99.90;;;;;;5018835;28;20040;-77
2022/07/09 12:24:17;;;;;;;3.33;0.50;;;23.70;99.90;;;;;;5048573;28;19968;-76
2022/07/09 12:26:42;;;;;;;;;;;23.60;99.90;;;;;;5016723;28;20441;-76
2022/07/09 12:29:08;;;;;;;3.60;0.50;;;23.60;99.90;;;;;;5051656;28;19939;-76
2022/07/09 12:31:37;;;;;;;;;;;23.70;99.90;;;;;;5032482;28;20081;-76
2022/07/09 12:34:04;;;;;;;1.88;0.40;;;23.70;99.90;;;;;;5051562;28;19917;-75
2022/07/09 12:36:29;;;;;;;5.00;0.57;;;23.80;99.90;;;;;;5035384;28;20041;-77
2022/07/09 12:38:55;;;;;;;;;;;24.40;99.90;;;;;;5031729;28;20090;-77
2022/07/09 12:41:21;;;;;;;3.03;0.57;;;24.70;99.90;;;;;;5048536;28;19916;-77
2022/07/09 12:43:46;;;;;;;;;;;24.80;99.20;;;;;;5000351;28;20076;-76
2022/07/09 12:46:12;;;;;;;6.15;0.70;;;24.60;99.50;;;;;;5049450;28;19924;-76
2022/07/09 12:48:37;;;;;;;;;;;24.40;99.00;;;;;;5017788;28;20493;-77